Flight Track Log - Related Links

Times and Time Zones

All times are in EDT time to prevent confusion due to time zone crossing. See the N589H flight status page for this flight to view local times or setup timezone preferences in your user account.

Time Position Orientation Groundspeed Altitude Reporting Facility
EDT Latitude Longitude Course Direction KTS MPH feet Rate Location/Type
Sat 07:39:49 AM 27.9000 -82.6833 180° South 144 166 600  Level Tampa TRACON
Sat 07:40:19 AM 27.8833 -82.6833 180° South 140 161 1,600 1,533 Climbing Tampa TRACON
Sat 07:41:19 AM 27.8333 -82.7000 196° South 168 193 2,900 1,400 Climbing Tampa TRACON
Sat 07:42:19 AM 27.7833 -82.6833 164° South 207 238 4,400 1,050 Climbing Tampa TRACON
Sat 07:43:19 AM 27.7333 -82.6667 164° South 217 250 5,000 300 Climbing Tampa TRACON
Sat 07:44:19 AM 27.6667 -82.6500 168° South 216 249 5,000  Level Tampa TRACON
Sat 07:45:19 AM 27.6167 -82.6333 164° South 189 217 5,000  Level Tampa TRACON
Sat 07:46:19 AM 27.5667 -82.6167 164° South 175 201 5,000  Level Tampa TRACON
Sat 07:47:19 AM 27.5333 -82.5833 138° Southeast 182 209 5,000  Level Tampa TRACON
Sat 07:48:19 AM 27.5000 -82.5500 138° Southeast 194 223 5,000  Level Tampa TRACON
Sat 07:49:19 AM 27.4667 -82.5000 127° Southeast 186 214 5,000  Level Tampa TRACON
Sat 07:50:19 AM 27.4333 -82.4667 138° Southeast 179 206 5,000 -450 Level Tampa TRACON
Sat 07:51:19 AM 27.3833 -82.4167 138° Southeast 209 241 4,100 -500 Descending Tampa TRACON
Sat 07:52:19 AM 27.3500 -82.3833 138° Southeast 182 209 4,000 -300 Descending Tampa TRACON
Sat 07:53:19 AM 27.3167 -82.3500 138° Southeast 175 201 3,500 -500 Descending Tampa TRACON
Sat 07:54:19 AM 27.2667 -82.3000 138° Southeast 186 214 3,000 -250 Descending Tampa TRACON
Sat 07:55:19 AM 27.2333 -82.2667 138° Southeast 175 201 3,000 -550 Level Tampa TRACON
Sat 07:56:19 AM 27.2000 -82.2833 204° Southwest 157 181 1,900 -700 Descending Tampa TRACON
Sat 07:57:19 AM 27.1833 -82.3167 241° Southwest 133 153 1,600 -100 Descending Tampa TRACON
Sat 07:58:19 AM 27.1500 -82.3500 222° Southwest 136 157 1,700 -100 Climbing Tampa TRACON
Sat 07:59:19 AM 27.1333 -82.3833 241° Southwest 135 155 1,400 -450 Descending Tampa TRACON
Sat 08:00:19 AM 27.1167 -82.4000 222° Southwest 121 139 800 -600 Descending Tampa TRACON

Login

Don't have an account? Register now (free) for customized features, flight alerts, and more!